createdAt,value
2018-01-11T00:00:55.611Z,39.86
2018-01-11T00:02:05.483Z,39.74
2018-01-11T00:03:14.460Z,39.74
2018-01-11T00:04:23.152Z,39.95
2018-01-11T00:05:31.861Z,39.74
2018-01-11T00:06:41.333Z,39.83
2018-01-11T00:07:50.798Z,39.83
2018-01-11T00:08:59.739Z,39.83
2018-01-11T00:10:08.683Z,39.93
2018-01-11T00:11:18.430Z,39.93
2018-01-11T00:12:27.631Z,39.93
2018-01-11T00:13:36.580Z,39.83
2018-01-11T00:14:45.527Z,39.95
2018-01-11T00:15:54.214Z,39.95
2018-01-11T00:17:03.705Z,39.83
2018-01-11T00:18:12.644Z,39.93
2018-01-11T00:19:21.353Z,39.64
2018-01-11T00:20:30.849Z,39.95
2018-01-11T00:21:39.839Z,39.83
2018-01-11T00:22:48.527Z,39.74
2018-01-11T00:23:57.724Z,39.93
2018-01-11T00:25:06.939Z,39.83
2018-01-11T00:26:15.609Z,39.93
2018-01-11T00:27:24.551Z,39.83
2018-01-11T00:28:33.777Z,39.83
2018-01-11T00:29:42.813Z,39.83
2018-01-11T00:30:51.802Z,39.83
2018-01-11T00:32:00.488Z,39.83
2018-01-11T00:33:09.691Z,39.93
2018-01-11T00:34:19.163Z,39.93
2018-01-11T00:35:28.637Z,39.83
2018-01-11T00:36:38.114Z,39.95
2018-01-11T00:37:47.322Z,39.93
2018-01-11T00:38:56.781Z,39.74
2018-01-11T00:40:05.479Z,39.64
2018-01-11T00:41:14.692Z,39.64
2018-01-11T00:42:23.654Z,39.74
2018-01-11T00:43:32.344Z,39.74
2018-01-11T00:44:41.029Z,39.64
2018-01-11T00:45:49.964Z,39.64
2018-01-11T00:46:59.944Z,39.64
2018-01-11T00:48:09.414Z,39.54
2018-01-11T00:49:18.367Z,39.54
2018-01-11T00:50:27.310Z,39.54
2018-01-11T00:51:36.260Z,39.93
2018-01-11T00:52:45.481Z,39.93
2018-01-11T00:53:54.165Z,39.93
2018-01-11T00:55:03.374Z,39.83
2018-01-11T00:56:12.337Z,39.93
2018-01-11T00:57:21.536Z,39.83
2018-01-11T00:58:30.761Z,39.83
2018-01-11T00:59:39.961Z,39.83
2018-01-11T01:00:49.194Z,39.93
2018-01-11T01:01:58.394Z,39.64
2018-01-11T01:03:07.600Z,40.03
2018-01-11T01:04:16.800Z,39.74
2018-01-11T01:05:26.024Z,39.74
2018-01-11T01:06:34.968Z,39.74
2018-01-11T01:07:44.167Z,39.93
2018-01-11T01:08:53.369Z,39.93
2018-01-11T01:10:02.617Z,39.93
2018-01-11T01:11:11.850Z,40.03
2018-01-11T01:12:21.046Z,39.93
2018-01-11T01:13:30.241Z,39.93
2018-01-11T01:14:38.921Z,39.93
2018-01-11T01:15:48.168Z,39.93
2018-01-11T01:16:57.365Z,40.03
2018-01-11T01:18:06.833Z,40.03
2018-01-11T01:19:15.548Z,39.93
2018-01-11T01:20:25.047Z,40.51
2018-01-11T01:21:34.293Z,39.93
2018-01-11T01:22:43.233Z,40.03
2018-01-11T01:23:51.954Z,40.51
2018-01-11T01:25:01.426Z,40.51
2018-01-11T01:26:10.388Z,40.03
2018-01-11T01:27:19.382Z,40.41
2018-01-11T01:28:29.100Z,40.41
2018-01-11T01:29:38.041Z,40.03
2018-01-11T01:30:46.722Z,40.03
2018-01-11T01:31:56.183Z,40.03
2018-01-11T01:33:04.866Z,40.03
2018-01-11T01:34:14.332Z,40.03
2018-01-11T01:35:23.283Z,40.12
2018-01-11T01:36:32.493Z,39.93
2018-01-11T01:37:41.432Z,40.03
2018-01-11T01:38:50.653Z,40.41
2018-01-11T01:39:59.871Z,40.51
2018-01-11T01:41:08.807Z,40.51
2018-01-11T01:42:17.766Z,40.03
2018-01-11T01:43:26.967Z,40.03
2018-01-11T01:44:36.445Z,40.03
2018-01-11T01:45:45.421Z,40.12
2018-01-11T01:46:54.890Z,40.51
2018-01-11T01:48:04.613Z,40.03
2018-01-11T01:49:13.823Z,40.41
2018-01-11T01:50:23.027Z,40.41
2018-01-11T01:51:31.708Z,40.41
2018-01-11T01:52:40.379Z,40.12
2018-01-11T01:53:49.850Z,40.03
2018-01-11T01:54:58.829Z,39.93
2018-01-11T01:56:08.040Z,39.93
2018-01-11T01:57:16.981Z,39.93
2018-01-11T01:58:26.442Z,40.41
2018-01-11T01:59:35.409Z,39.93
2018-01-11T02:00:44.387Z,39.93
2018-01-11T02:01:53.082Z,40.03
2018-01-11T02:03:02.364Z,40.03
2018-01-11T02:04:11.576Z,39.93
2018-01-11T02:05:20.795Z,39.93
2018-01-11T02:06:30.061Z,40.12
2018-01-11T02:07:39.275Z,39.93
2018-01-11T02:08:48.478Z,39.93
2018-01-11T02:09:57.171Z,39.93
2018-01-11T02:11:06.378Z,39.93
2018-01-11T02:12:15.064Z,39.93
2018-01-11T02:13:23.742Z,39.93
2018-01-11T02:14:32.721Z,40.03
2018-01-11T02:15:41.655Z,39.93
2018-01-11T02:16:51.175Z,39.93
2018-01-11T02:18:00.686Z,39.93
2018-01-11T02:19:09.955Z,39.93
2018-01-11T02:20:19.434Z,39.93
2018-01-11T02:21:28.687Z,39.93
2018-01-11T02:22:37.444Z,39.93
2018-01-11T02:23:46.381Z,39.93
2018-01-11T02:24:55.908Z,39.93
2018-01-11T02:26:05.223Z,39.93
2018-01-11T02:27:14.094Z,39.93
2018-01-11T02:28:23.307Z,39.93
2018-01-11T02:29:32.815Z,39.83
2018-01-11T02:30:42.278Z,39.93
2018-01-11T02:31:51.490Z,40.03
2018-01-11T02:33:00.426Z,39.93
2018-01-11T02:34:09.622Z,39.93
2018-01-11T02:35:18.573Z,39.93
2018-01-11T02:36:27.535Z,40.03
2018-01-11T02:37:36.473Z,40.03
2018-01-11T02:38:45.406Z,40.03
2018-01-11T02:39:54.416Z,39.93
2018-01-11T02:41:03.890Z,40.03
2018-01-11T02:42:13.362Z,40.03
2018-01-11T02:43:22.338Z,40.12
2018-01-11T02:44:31.285Z,40.03
2018-01-11T02:45:40.513Z,39.93
2018-01-11T02:46:49.454Z,40.03
2018-01-11T02:47:58.419Z,40.03
2018-01-11T02:49:07.653Z,39.93
2018-01-11T02:50:16.608Z,39.93
2018-01-11T02:51:25.315Z,39.93
2018-01-11T02:52:34.283Z,39.93
2018-01-11T02:53:43.234Z,39.93
2018-01-11T02:54:52.164Z,40.51
2018-01-11T02:56:01.640Z,40.03
2018-01-11T02:57:10.903Z,39.93
2018-01-11T02:58:19.859Z,39.93
2018-01-11T02:59:29.336Z,40.03
2018-01-11T03:00:38.829Z,40.12
2018-01-11T03:01:48.165Z,40.41
2018-01-11T03:02:57.549Z,40.51
2018-01-11T03:04:06.507Z,40.41
2018-01-11T03:05:15.262Z,40.41
2018-01-11T03:06:24.766Z,40.41
2018-01-11T03:07:33.712Z,40.41
2018-01-11T03:08:42.663Z,40.31
2018-01-11T03:09:52.139Z,40.51
2018-01-11T03:11:00.838Z,40.51
2018-01-11T03:12:10.332Z,40.41
2018-01-11T03:13:19.821Z,40.51
2018-01-11T03:14:28.508Z,40.51
2018-01-11T03:15:37.985Z,40.51
2018-01-11T03:16:47.206Z,40.03
2018-01-11T03:17:56.689Z,40.41
2018-01-11T03:19:05.911Z,40.03
2018-01-11T03:20:15.134Z,40.03
2018-01-11T03:21:24.354Z,39.93
2018-01-11T03:22:33.298Z,39.93
2018-01-11T03:23:42.796Z,39.93
2018-01-11T03:24:51.769Z,40.12
2018-01-11T03:26:00.711Z,40.03
2018-01-11T03:27:09.934Z,39.93
2018-01-11T03:28:19.178Z,40.61
2018-01-11T03:29:28.148Z,40.51
2018-01-11T03:30:38.193Z,39.93
2018-01-11T03:31:47.419Z,39.93
2018-01-11T03:32:56.638Z,39.93
2018-01-11T03:34:05.872Z,39.93
2018-01-11T03:35:15.872Z,39.93
2018-01-11T03:36:24.604Z,39.93
2018-01-11T03:37:34.073Z,39.93
2018-01-11T03:38:43.276Z,39.93
2018-01-11T03:39:52.734Z,39.93
2018-01-11T03:41:01.735Z,39.64
2018-01-11T03:42:10.925Z,39.83
2018-01-11T03:43:20.416Z,39.83
2018-01-11T03:44:29.900Z,39.93
2018-01-11T03:45:38.605Z,39.93
2018-01-11T03:46:48.079Z,39.93
2018-01-11T03:47:57.304Z,39.83
2018-01-11T03:49:06.530Z,39.93
2018-01-11T03:50:15.741Z,40.03
2018-01-11T03:51:24.716Z,39.93
2018-01-11T03:52:33.689Z,39.83
2018-01-11T03:53:42.668Z,39.64
2018-01-11T03:54:52.399Z,39.64
2018-01-11T03:56:01.637Z,39.74
2018-01-11T03:57:10.855Z,39.64
2018-01-11T03:58:20.073Z,39.93
2018-01-11T03:59:29.048Z,39.74
2018-01-11T04:00:38.293Z,39.83
2018-01-11T04:01:47.242Z,39.93
2018-01-11T04:02:56.459Z,39.64
2018-01-11T04:04:05.659Z,39.83
2018-01-11T04:05:14.616Z,40.03
2018-01-11T04:06:23.808Z,39.93
2018-01-11T04:07:33.112Z,40.03
2018-01-11T04:08:42.844Z,39.93
2018-01-11T04:09:51.799Z,39.93
2018-01-11T04:11:01.013Z,39.93
2018-01-11T04:12:09.699Z,39.74
2018-01-11T04:13:18.413Z,39.83
2018-01-11T04:14:27.609Z,39.93
2018-01-11T04:15:36.300Z,39.93
2018-01-11T04:16:45.260Z,39.74
2018-01-11T04:17:54.716Z,39.74
2018-01-11T04:19:03.928Z,39.64
2018-01-11T04:20:13.231Z,40.03
2018-01-11T04:21:21.968Z,39.93
2018-01-11T04:22:31.452Z,39.74
2018-01-11T04:23:40.655Z,39.83
2018-01-11T04:24:49.358Z,39.83
2018-01-11T04:25:58.103Z,40.51
2018-01-11T04:27:07.589Z,39.93
2018-01-11T04:28:16.873Z,39.93
2018-01-11T04:29:25.836Z,39.74
2018-01-11T04:30:35.029Z,39.74
2018-01-11T04:31:44.545Z,39.93
2018-01-11T04:32:54.021Z,39.74
2018-01-11T04:34:03.755Z,39.83
2018-01-11T04:35:12.700Z,39.93
2018-01-11T04:36:21.656Z,40.03
2018-01-11T04:37:31.172Z,39.83
2018-01-11T04:38:40.100Z,39.74
2018-01-11T04:39:49.312Z,40.03
2018-01-11T04:40:58.537Z,39.83
2018-01-11T04:42:07.736Z,39.93
2018-01-11T04:43:16.411Z,39.64
2018-01-11T04:44:26.178Z,40.03
2018-01-11T04:45:35.674Z,39.93
2018-01-11T04:46:44.658Z,39.93
2018-01-11T04:47:53.382Z,39.83
2018-01-11T04:49:02.582Z,40.03
2018-01-11T04:50:11.542Z,39.93
2018-01-11T04:51:20.763Z,40.12
2018-01-11T04:52:29.714Z,39.93
2018-01-11T04:53:38.938Z,40.51
2018-01-11T04:54:48.412Z,40.12
2018-01-11T04:55:57.629Z,39.93
2018-01-11T04:57:06.854Z,40.03
2018-01-11T04:58:16.349Z,40.03
2018-01-11T04:59:25.304Z,39.93
2018-01-11T05:00:34.806Z,40.41
2018-01-11T05:01:43.496Z,40.51
2018-01-11T05:02:52.998Z,39.93
2018-01-11T05:04:01.955Z,39.93
2018-01-11T05:05:11.432Z,39.93
2018-01-11T05:06:20.399Z,39.93
2018-01-11T05:07:29.626Z,40.03
2018-01-11T05:08:39.346Z,39.74
2018-01-11T05:09:48.553Z,39.83
2018-01-11T05:10:57.292Z,40.51
2018-01-11T05:12:06.238Z,39.93
2018-01-11T05:13:15.178Z,40.03
2018-01-11T05:14:24.418Z,40.12
2018-01-11T05:15:33.350Z,40.03
2018-01-11T05:16:42.558Z,40.51
2018-01-11T05:17:51.799Z,39.93
2018-01-11T05:19:00.753Z,40.03
2018-01-11T05:20:10.244Z,40.03
2018-01-11T05:21:19.203Z,40.41
2018-01-11T05:22:27.938Z,40.03
2018-01-11T05:23:37.177Z,39.93
2018-01-11T05:24:46.112Z,40.03
2018-01-11T05:25:54.807Z,40.03
2018-01-11T05:27:03.757Z,40.41
2018-01-11T05:28:12.970Z,40.03
2018-01-11T05:29:22.165Z,39.93
2018-01-11T05:30:31.907Z,40.03
2018-01-11T05:31:41.112Z,40.51
2018-01-11T05:32:50.068Z,40.51
2018-01-11T05:33:59.293Z,40.41
2018-01-11T05:35:08.511Z,40.03
2018-01-11T05:36:17.197Z,39.93
2018-01-11T05:37:26.416Z,39.83
2018-01-11T05:38:35.906Z,39.93
2018-01-11T05:39:45.640Z,39.64
2018-01-11T05:40:54.591Z,39.64
2018-01-11T05:42:04.056Z,39.64
2018-01-11T05:43:13.536Z,39.45
2018-01-11T05:44:22.737Z,38.97
2018-01-11T05:45:31.435Z,39.47
2018-01-11T05:46:40.897Z,39.18
2018-01-11T05:47:50.147Z,38.99
2018-01-11T05:48:59.090Z,39.18
2018-01-11T05:50:08.605Z,39.37
2018-01-11T05:51:17.348Z,38.99
2018-01-11T05:52:26.547Z,38.41
2018-01-11T05:53:35.238Z,38.51
2018-01-11T05:54:44.459Z,38.43
2018-01-11T05:55:53.185Z,38.14
2018-01-11T05:57:02.135Z,38.24
2018-01-11T05:58:11.089Z,38.24
2018-01-11T05:59:20.314Z,38.24
2018-01-11T06:00:29.798Z,38.24
2018-01-11T06:01:39.261Z,38.53
2018-01-11T06:02:48.198Z,38.33
2018-01-11T06:03:57.424Z,38.24
2018-01-11T06:05:06.615Z,38.06
2018-01-11T06:06:15.812Z,37.96
2018-01-11T06:07:24.782Z,37.68
2018-01-11T06:08:34.006Z,37.68
2018-01-11T06:09:42.967Z,37.77
2018-01-11T06:10:51.936Z,37.87
2018-01-11T06:12:01.147Z,37.48
2018-01-11T06:13:10.092Z,37.58
2018-01-11T06:14:19.593Z,37.68
2018-01-11T06:15:28.586Z,37.77
2018-01-11T06:16:37.808Z,37.79
2018-01-11T06:17:47.040Z,37.89
2018-01-11T06:18:55.991Z,37.79
2018-01-11T06:20:04.949Z,37.6
2018-01-11T06:21:13.967Z,37.6
2018-01-11T06:22:22.910Z,37.6
2018-01-11T06:23:31.861Z,37.41
2018-01-11T06:24:40.794Z,37.21
2018-01-11T06:25:49.730Z,37.21
2018-01-11T06:26:58.699Z,37.21
2018-01-11T06:28:08.460Z,37.13
2018-01-11T06:29:17.471Z,37.04
2018-01-11T06:30:26.120Z,37.13
2018-01-11T06:31:35.068Z,36.94
2018-01-11T06:32:44.003Z,37.04
2018-01-11T06:33:53.475Z,37.04
2018-01-11T06:35:02.699Z,36.94
2018-01-11T06:36:11.661Z,37.04
2018-01-11T06:37:20.861Z,36.94
2018-01-11T06:38:30.112Z,36.85
2018-01-11T06:39:39.669Z,36.87
2018-01-11T06:40:48.636Z,36.57
2018-01-11T06:41:58.129Z,36.77
2018-01-11T06:43:06.837Z,36.96
2018-01-11T06:44:16.377Z,36.67
2018-01-11T06:45:25.321Z,36.87
2018-01-11T06:46:34.555Z,36.96
2018-01-11T06:47:43.504Z,36.77
2018-01-11T06:48:52.720Z,36.57
2018-01-11T06:50:01.681Z,36.57
2018-01-11T06:51:10.663Z,36.57
2018-01-11T06:52:19.632Z,36.87
2018-01-11T06:53:28.908Z,36.77
2018-01-11T06:54:37.847Z,36.67
2018-01-11T06:55:46.844Z,36.87
2018-01-11T06:56:55.981Z,36.77
2018-01-11T06:58:05.450Z,36.96
2018-01-11T06:59:14.931Z,36.96
2018-01-11T07:00:24.140Z,36.77
2018-01-11T07:01:33.633Z,36.87
2018-01-11T07:02:42.574Z,36.96
2018-01-11T07:03:52.088Z,36.96
2018-01-11T07:05:01.333Z,37.06
2018-01-11T07:06:10.804Z,37.25
2018-01-11T07:07:20.333Z,37.25
2018-01-11T07:08:29.235Z,37.35
2018-01-11T07:09:38.462Z,36.96
2018-01-11T07:10:47.693Z,37.06
2018-01-11T07:11:56.935Z,37.25
2018-01-11T07:13:05.622Z,37.15
2018-01-11T07:14:14.614Z,37.35
2018-01-11T07:15:24.113Z,37.25
2018-01-11T07:16:33.629Z,37.54
2018-01-11T07:17:42.590Z,37.54
2018-01-11T07:18:51.818Z,37.73
2018-01-11T07:20:01.296Z,37.54
2018-01-11T07:21:10.511Z,37.73
2018-01-11T07:22:19.302Z,37.93
2018-01-11T07:23:28.524Z,37.73
2018-01-11T07:24:37.473Z,37.71
2018-01-11T07:25:46.430Z,37.71
2018-01-11T07:26:55.636Z,37.81
2018-01-11T07:28:04.906Z,37.62
2018-01-11T07:29:14.126Z,37.91
2018-01-11T07:30:23.122Z,37.91
2018-01-11T07:31:32.658Z,38.2
2018-01-11T07:32:41.933Z,38.39
2018-01-11T07:33:50.900Z,38.39
2018-01-11T07:35:00.407Z,38.2
2018-01-11T07:36:09.384Z,38.2
2018-01-11T07:37:18.611Z,38.1
2018-01-11T07:38:27.594Z,38.2
2018-01-11T07:39:36.594Z,38.56
2018-01-11T07:40:45.888Z,38.76
2018-01-11T07:41:55.377Z,38.46
2018-01-11T07:43:04.380Z,38.66
2018-01-11T07:44:14.371Z,38.76
2018-01-11T07:45:23.346Z,38.76
2018-01-11T07:46:32.332Z,39.04
2018-01-11T07:47:41.558Z,39.43
2018-01-11T07:48:50.542Z,39.43
2018-01-11T07:49:59.786Z,39.24
2018-01-11T07:51:08.788Z,39.24
2018-01-11T07:52:17.767Z,38.85
2018-01-11T07:53:26.753Z,39.04
2018-01-11T07:54:35.706Z,39.04
2018-01-11T07:55:44.963Z,38.95
2018-01-11T07:56:53.736Z,39.53
2018-01-11T07:58:03.238Z,39.43
2018-01-11T07:59:12.987Z,39.51
2018-01-11T08:00:21.676Z,39.34
2018-01-11T08:01:30.366Z,39.41
2018-01-11T08:02:39.324Z,39.61
2018-01-11T08:03:48.566Z,39.51
2018-01-11T08:04:58.044Z,39.12
2018-01-11T08:06:07.284Z,39.61
2018-01-11T08:07:15.972Z,39.7
2018-01-11T08:08:24.926Z,39.7
2018-01-11T08:09:33.902Z,39.79
2018-01-11T08:10:43.386Z,39.79
2018-01-11T08:11:52.183Z,39.61
2018-01-11T08:13:01.422Z,39.7
2018-01-11T08:14:10.116Z,39.61
2018-01-11T08:15:19.067Z,39.7
2018-01-11T08:16:28.540Z,39.79
2018-01-11T08:17:38.022Z,39.99
2018-01-11T08:18:46.994Z,39.89
2018-01-11T08:19:55.969Z,39.79
2018-01-11T08:21:05.018Z,39.7
2018-01-11T08:22:14.283Z,39.99
2018-01-11T08:23:24.301Z,39.99
2018-01-11T08:24:33.530Z,39.89
2018-01-11T08:25:42.494Z,39.89
2018-01-11T08:26:51.484Z,40.09
2018-01-11T08:28:00.184Z,40.09
2018-01-11T08:29:09.149Z,40.47
2018-01-11T08:30:18.378Z,40.47
2018-01-11T08:31:27.087Z,40.47
2018-01-11T08:32:36.068Z,40.37
2018-01-11T08:33:45.298Z,40.28
2018-01-11T08:34:54.257Z,40.28
2018-01-11T08:36:03.206Z,40.37
2018-01-11T08:37:12.942Z,40.28
2018-01-11T08:38:21.978Z,40.37
2018-01-11T08:39:31.196Z,40.37
2018-01-11T08:40:39.882Z,40.36
2018-01-11T08:41:48.847Z,40.28
2018-01-11T08:42:57.551Z,40.28
2018-01-11T08:44:06.580Z,40.26
2018-01-11T08:45:16.058Z,40.26
2018-01-11T08:46:25.526Z,40.26
2018-01-11T08:47:34.489Z,40.26
2018-01-11T08:48:43.442Z,40.36
2018-01-11T08:49:52.401Z,40.36
2018-01-11T08:51:01.905Z,40.37
2018-01-11T08:52:11.124Z,40.36
2018-01-11T08:53:20.359Z,40.16
2018-01-11T08:54:29.314Z,40.36
2018-01-11T08:55:38.804Z,40.26
2018-01-11T08:56:48.011Z,40.26
2018-01-11T08:57:56.696Z,40.26
2018-01-11T08:59:05.654Z,40.26
2018-01-11T09:00:15.174Z,40.16
2018-01-11T09:01:23.874Z,40.16
2018-01-11T09:02:33.871Z,40.16
2018-01-11T09:03:42.830Z,40.26
2018-01-11T09:04:52.052Z,40.07
2018-01-11T09:06:00.781Z,40.64
2018-01-11T09:07:09.996Z,40.16
2018-01-11T09:08:19.464Z,40.16
2018-01-11T09:09:28.933Z,40.16
2018-01-11T09:10:38.408Z,40.26
2018-01-11T09:11:47.129Z,40.26
2018-01-11T09:12:56.339Z,40.26
2018-01-11T09:14:05.853Z,40.26
2018-01-11T09:15:14.813Z,40.36
2018-01-11T09:16:23.769Z,40.26
2018-01-11T09:17:32.972Z,40.26
2018-01-11T09:18:42.248Z,40.26
2018-01-11T09:19:50.945Z,40.26
2018-01-11T09:21:00.607Z,40.16
2018-01-11T09:22:09.848Z,40.26
2018-01-11T09:23:19.335Z,40.26
2018-01-11T09:24:28.541Z,40.26
2018-01-11T09:25:37.554Z,40.16
2018-01-11T09:26:46.546Z,40.16
2018-01-11T09:27:55.764Z,40.36
2018-01-11T09:29:04.996Z,40.36
2018-01-11T09:30:14.219Z,40.36
2018-01-11T09:31:23.196Z,40.26
2018-01-11T09:32:32.462Z,40.36
2018-01-11T09:33:41.686Z,40.36
2018-01-11T09:34:51.472Z,40.36
2018-01-11T09:36:00.464Z,40.36
2018-01-11T09:37:09.684Z,40.26
2018-01-11T09:38:18.657Z,40.36
2018-01-11T09:39:27.438Z,40.36
2018-01-11T09:40:36.148Z,40.36
2018-01-11T09:41:45.109Z,40.16
2018-01-11T09:42:54.662Z,40.36
2018-01-11T09:44:03.613Z,40.26
2018-01-11T09:45:12.605Z,40.26
2018-01-11T09:46:21.830Z,40.26
2018-01-11T09:47:30.783Z,40.28
2018-01-11T09:48:40.275Z,40.28
2018-01-11T09:49:48.968Z,40.36
2018-01-11T09:50:57.918Z,40.37
2018-01-11T09:52:07.197Z,40.26
2018-01-11T09:53:16.421Z,40.36
2018-01-11T09:54:25.446Z,40.45
2018-01-11T09:55:34.948Z,40.45
2018-01-11T09:56:43.674Z,40.57
2018-01-11T09:57:52.866Z,40.45
2018-01-11T09:59:01.601Z,40.47
2018-01-11T10:00:10.809Z,40.45
2018-01-11T10:01:20.053Z,40.19
2018-01-11T10:02:29.545Z,40.57
2018-01-11T10:03:38.506Z,39.79
2018-01-11T10:04:47.476Z,39.99
2018-01-11T10:05:56.435Z,39.89
2018-01-11T10:07:05.907Z,39.79
2018-01-11T10:08:15.130Z,39.99
2018-01-11T10:09:24.477Z,39.61
2018-01-11T10:10:33.217Z,39.99
2018-01-11T10:11:42.458Z,39.89
2018-01-11T10:12:51.150Z,39.79
2018-01-11T10:14:00.373Z,39.79
2018-01-11T10:15:09.317Z,39.79
2018-01-11T10:16:18.280Z,39.7
2018-01-11T10:17:26.998Z,39.7
2018-01-11T10:18:36.227Z,39.89
2018-01-11T10:19:45.176Z,39.7
2018-01-11T10:20:53.937Z,39.89
2018-01-11T10:22:02.992Z,39.61
2018-01-11T10:23:11.953Z,39.99
2018-01-11T10:24:20.918Z,39.89
2018-01-11T10:25:29.890Z,39.89
2018-01-11T10:26:39.374Z,39.89
2018-01-11T10:27:48.627Z,39.99
2018-01-11T10:28:58.620Z,39.99
2018-01-11T10:30:07.575Z,39.89
2018-01-11T10:31:17.073Z,39.89
2018-01-11T10:32:26.042Z,39.99
2018-01-11T10:33:35.779Z,40.09
2018-01-11T10:34:44.761Z,39.89
2018-01-11T10:35:54.069Z,39.79
2018-01-11T10:37:03.025Z,39.89
2018-01-11T10:38:12.031Z,39.89
2018-01-11T10:39:20.995Z,39.99
2018-01-11T10:40:29.942Z,39.99
2018-01-11T10:41:39.159Z,39.99
2018-01-11T10:42:48.122Z,39.89
2018-01-11T10:43:57.069Z,39.79
2018-01-11T10:45:06.041Z,39.99
2018-01-11T10:46:15.002Z,39.99
2018-01-11T10:47:24.222Z,39.99
2018-01-11T10:48:33.181Z,39.99
2018-01-11T10:49:42.183Z,39.99
2018-01-11T10:50:51.396Z,40.09
2018-01-11T10:52:00.349Z,39.61
2018-01-11T10:53:09.583Z,39.61
2018-01-11T10:54:18.795Z,39.99
2018-01-11T10:55:28.012Z,39.89
2018-01-11T10:56:37.013Z,39.79
2018-01-11T10:57:46.231Z,39.89
2018-01-11T10:58:55.175Z,39.7
2018-01-11T11:00:04.723Z,39.61
2018-01-11T11:01:14.461Z,39.99
2018-01-11T11:02:23.431Z,39.79
2018-01-11T11:03:32.924Z,39.79
2018-01-11T11:04:42.412Z,39.79
2018-01-11T11:05:51.360Z,39.79
2018-01-11T11:07:00.573Z,39.99
2018-01-11T11:08:09.795Z,39.79
2018-01-11T11:09:18.494Z,39.7
2018-01-11T11:10:27.467Z,39.7
2018-01-11T11:11:36.930Z,39.7
2018-01-11T11:12:45.893Z,39.61
2018-01-11T11:13:54.888Z,39.61
2018-01-11T11:15:03.857Z,39.7
2018-01-11T11:16:13.106Z,39.79
2018-01-11T11:17:22.063Z,39.79
2018-01-11T11:18:31.796Z,39.79
2018-01-11T11:19:41.265Z,39.79
2018-01-11T11:20:51.004Z,39.99
2018-01-11T11:22:00.225Z,39.99
2018-01-11T11:23:09.448Z,39.61
2018-01-11T11:24:19.188Z,39.79
2018-01-11T11:25:28.407Z,39.61
2018-01-11T11:26:37.882Z,39.61
2018-01-11T11:27:47.113Z,39.99
2018-01-11T11:28:56.612Z,39.79
2018-01-11T11:30:05.826Z,39.89
2018-01-11T11:31:15.090Z,39.99
2018-01-11T11:32:24.392Z,39.99
2018-01-11T11:33:33.095Z,39.89
2018-01-11T11:34:42.567Z,39.97
2018-01-11T11:35:51.555Z,39.89
2018-01-11T11:37:01.344Z,39.89
2018-01-11T11:38:10.309Z,39.99
2018-01-11T11:39:18.991Z,39.89
2018-01-11T11:40:28.202Z,39.99
2018-01-11T11:41:37.235Z,39.99
2018-01-11T11:42:46.459Z,39.89
2018-01-11T11:43:55.667Z,39.99
2018-01-11T11:45:05.163Z,39.89
2018-01-11T11:46:14.952Z,39.99
2018-01-11T11:47:24.423Z,39.99
2018-01-11T11:48:33.110Z,39.89
2018-01-11T11:49:42.582Z,39.7
2018-01-11T11:50:51.554Z,39.99
2018-01-11T11:52:01.032Z,39.99
2018-01-11T11:53:10.503Z,39.99
2018-01-11T11:54:19.458Z,39.99
2018-01-11T11:55:28.711Z,39.99
2018-01-11T11:56:37.678Z,39.89
2018-01-11T11:57:46.956Z,39.79
2018-01-11T11:58:56.207Z,39.89
2018-01-11T12:00:05.434Z,39.89
2018-01-11T12:01:14.968Z,39.79
2018-01-11T12:02:23.658Z,39.89
2018-01-11T12:03:32.880Z,39.89
2018-01-11T12:04:42.421Z,39.79
2018-01-11T12:05:51.657Z,39.99
2018-01-11T12:07:00.870Z,39.7
2018-01-11T12:08:10.102Z,39.89
2018-01-11T12:09:18.803Z,39.7
2018-01-11T12:10:28.013Z,39.79
2018-01-11T12:11:37.021Z,39.61
2018-01-11T12:12:46.501Z,39.79
2018-01-11T12:13:55.192Z,39.89
2018-01-11T12:15:04.710Z,39.79
2018-01-11T12:16:14.459Z,39.89
2018-01-11T12:17:23.693Z,39.79
2018-01-11T12:18:32.908Z,39.7
2018-01-11T12:19:42.148Z,39.89
2018-01-11T12:20:51.655Z,39.51
2018-01-11T12:22:01.691Z,39.89
2018-01-11T12:23:10.908Z,39.99
2018-01-11T12:24:20.122Z,39.79
2018-01-11T12:25:28.810Z,39.89
2018-01-11T12:26:38.035Z,39.79
2018-01-11T12:27:47.348Z,39.7
2018-01-11T12:28:56.833Z,39.89
2018-01-11T12:30:06.302Z,39.99
2018-01-11T12:31:15.527Z,39.7
2018-01-11T12:32:24.487Z,39.79
2018-01-11T12:33:33.170Z,39.99
2018-01-11T12:34:42.393Z,39.7
2018-01-11T12:35:51.349Z,39.99
2018-01-11T12:37:00.835Z,39.79
2018-01-11T12:38:10.339Z,39.79
2018-01-11T12:39:19.029Z,39.7
2018-01-11T12:40:28.492Z,39.79
2018-01-11T12:41:37.986Z,39.99
2018-01-11T12:42:46.939Z,39.89
2018-01-11T12:43:55.897Z,39.89
2018-01-11T12:45:05.418Z,39.79
2018-01-11T12:46:14.650Z,39.99
2018-01-11T12:47:23.942Z,39.99
2018-01-11T12:48:32.893Z,39.89
2018-01-11T12:49:42.214Z,39.99
2018-01-11T12:50:51.446Z,39.89
2018-01-11T12:52:00.959Z,39.89
2018-01-11T12:53:10.429Z,39.79
2018-01-11T12:54:19.419Z,39.99
2018-01-11T12:55:29.150Z,39.99
2018-01-11T12:56:37.825Z,39.89
2018-01-11T12:57:47.080Z,39.99
2018-01-11T12:58:56.044Z,39.79
2018-01-11T13:00:05.499Z,39.99
2018-01-11T13:01:14.441Z,39.7
2018-01-11T13:02:23.463Z,39.59
2018-01-11T13:03:32.682Z,39.78
2018-01-11T13:04:41.892Z,39.79
2018-01-11T13:05:51.109Z,39.87
2018-01-11T13:07:00.081Z,39.87
2018-01-11T13:08:08.792Z,40.09
2018-01-11T13:09:18.005Z,39.87
2018-01-11T13:10:27.223Z,40.07
2018-01-11T13:11:36.200Z,39.78
2018-01-11T13:12:45.166Z,40.19
2018-01-11T13:13:54.171Z,39.97
2018-01-11T13:15:03.658Z,40.09
2018-01-11T13:16:12.653Z,39.97
2018-01-11T13:17:22.213Z,40.45
2018-01-11T13:18:31.420Z,40.16
2018-01-11T13:19:40.639Z,40.55
2018-01-11T13:20:49.963Z,40.55
2018-01-11T13:21:59.440Z,40.45
2018-01-11T13:23:08.484Z,40.55
2018-01-11T13:24:18.230Z,40.45
2018-01-11T13:25:27.193Z,40.55
2018-01-11T13:26:36.412Z,40.26
2018-01-11T13:27:45.394Z,40.26
2018-01-11T13:28:54.124Z,40.36
2018-01-11T13:30:03.651Z,40.16
2018-01-11T13:31:12.871Z,40.26
2018-01-11T13:32:21.851Z,40.36
2018-01-11T13:33:31.067Z,40.36
2018-01-11T13:34:40.540Z,40.26
2018-01-11T13:35:49.524Z,40.26
2018-01-11T13:36:58.787Z,40.26
2018-01-11T13:38:07.478Z,40.36
2018-01-11T13:39:16.461Z,40.26
2018-01-11T13:40:25.155Z,40.26
2018-01-11T13:41:34.364Z,40.26
2018-01-11T13:42:43.579Z,40.26
2018-01-11T13:43:52.288Z,40.26
2018-01-11T13:45:01.501Z,40.36
2018-01-11T13:46:10.987Z,40.26
2018-01-11T13:47:20.227Z,40.36
2018-01-11T13:48:29.446Z,40.26
2018-01-11T13:49:38.675Z,40.26
2018-01-11T13:50:48.184Z,40.36
2018-01-11T13:51:57.151Z,40.36
2018-01-11T13:53:06.662Z,40.26
2018-01-11T13:54:15.348Z,40.26
2018-01-11T13:55:24.316Z,40.26
2018-01-11T13:56:33.278Z,40.45
2018-01-11T13:57:42.502Z,40.26
2018-01-11T13:58:51.803Z,40.26
2018-01-11T14:00:01.277Z,40.26
2018-01-11T14:01:10.293Z,40.36
2018-01-11T14:02:19.269Z,40.36
2018-01-11T14:03:28.280Z,40.36
2018-01-11T14:04:37.276Z,40.36
2018-01-11T14:05:46.238Z,40.36
2018-01-11T14:06:55.485Z,40.26
2018-01-11T14:08:05.041Z,40.36
2018-01-11T14:09:14.536Z,40.26
2018-01-11T14:10:23.758Z,40.36
2018-01-11T14:11:32.742Z,40.36
2018-01-11T14:12:41.998Z,40.36
2018-01-11T14:13:51.469Z,40.16
2018-01-11T14:15:00.428Z,40.26
2018-01-11T14:16:10.194Z,40.16
2018-01-11T14:17:19.669Z,40.36
2018-01-11T14:18:28.625Z,40.26
2018-01-11T14:19:37.858Z,40.16
2018-01-11T14:20:46.836Z,40.26
2018-01-11T14:21:56.850Z,40.26
2018-01-11T14:23:05.823Z,40.16
2018-01-11T14:24:15.040Z,40.26
2018-01-11T14:25:24.025Z,40.74
2018-01-11T14:26:33.227Z,40.16
2018-01-11T14:27:42.583Z,40.26
2018-01-11T14:28:51.835Z,40.26
2018-01-11T14:30:01.111Z,40.16
2018-01-11T14:31:10.908Z,40.36
2018-01-11T14:32:19.597Z,40.36
2018-01-11T14:33:29.327Z,40.36
2018-01-11T14:34:38.302Z,40.16
2018-01-11T14:35:47.270Z,40.36
2018-01-11T14:36:56.235Z,40.16
2018-01-11T14:38:05.714Z,40.36
2018-01-11T14:39:15.191Z,40.16
2018-01-11T14:40:23.874Z,40.16
2018-01-11T14:41:33.351Z,40.64
2018-01-11T14:42:42.863Z,40.16
2018-01-11T14:43:51.816Z,40.64
2018-01-11T14:45:01.028Z,40.64
2018-01-11T14:46:09.989Z,40.64
2018-01-11T14:47:18.960Z,40.36
2018-01-11T14:48:28.171Z,40.26
2018-01-11T14:49:37.437Z,40.64
2018-01-11T14:50:46.411Z,40.55
2018-01-11T14:51:55.438Z,40.74